sensor_id;sensor_type;location;lat;lon;timestamp;P1;durP1;ratioP1;P2;durP2;ratioP2
25980;SDS011;13772;52.996;9.124;2023-12-20T07:41:46;12.93;;;3.30;;
25980;SDS011;13772;52.996;9.124;2023-12-20T07:44:11;12.45;;;2.92;;
25980;SDS011;13772;52.996;9.124;2023-12-20T07:46:36;9.82;;;2.80;;
25980;SDS011;13772;52.996;9.124;2023-12-20T07:49:01;15.65;;;3.40;;
25980;SDS011;13772;52.996;9.124;2023-12-20T07:51:27;15.48;;;3.20;;
25980;SDS011;13772;52.996;9.124;2023-12-20T07:53:52;15.18;;;3.05;;
25980;SDS011;13772;52.996;9.124;2023-12-20T07:56:18;19.92;;;3.05;;
25980;SDS011;13772;52.996;9.124;2023-12-20T07:58:43;15.82;;;3.22;;
25980;SDS011;13772;52.996;9.124;2023-12-20T08:01:10;19.13;;;4.07;;
25980;SDS011;13772;52.996;9.124;2023-12-20T08:03:35;13.20;;;2.80;;
25980;SDS011;13772;52.996;9.124;2023-12-20T08:06:00;19.67;;;4.25;;
25980;SDS011;13772;52.996;9.124;2023-12-20T08:08:26;17.00;;;2.88;;
25980;SDS011;13772;52.996;9.124;2023-12-20T08:10:51;15.80;;;4.05;;
25980;SDS011;13772;52.996;9.124;2023-12-20T08:13:16;13.20;;;3.05;;
25980;SDS011;13772;52.996;9.124;2023-12-20T08:15:41;19.48;;;3.30;;
25980;SDS011;13772;52.996;9.124;2023-12-20T08:18:07;19.13;;;3.67;;
25980;SDS011;13772;52.996;9.124;2023-12-20T08:20:32;15.10;;;3.55;;
25980;SDS011;13772;52.996;9.124;2023-12-20T08:22:57;20.00;;;3.88;;
25980;SDS011;13772;52.996;9.124;2023-12-20T08:25:22;19.00;;;3.40;;
25980;SDS011;13772;52.996;9.124;2023-12-20T08:27:48;12.82;;;2.97;;
25980;SDS011;13772;52.996;9.124;2023-12-20T08:30:13;15.50;;;3.25;;
25980;SDS011;13772;52.996;9.124;2023-12-20T08:32:38;12.55;;;2.42;;
25980;SDS011;13772;52.996;9.124;2023-12-20T08:35:03;17.15;;;3.17;;
25980;SDS011;13772;52.996;9.124;2023-12-20T08:37:29;19.20;;;3.05;;
25980;SDS011;13772;52.996;9.124;2023-12-20T08:39:54;19.05;;;2.95;;
25980;SDS011;13772;52.996;9.124;2023-12-20T08:42:20;18.85;;;3.58;;
25980;SDS011;13772;52.996;9.124;2023-12-20T08:44:45;22.15;;;3.90;;
25980;SDS011;13772;52.996;9.124;2023-12-20T08:47:10;20.27;;;3.42;;
25980;SDS011;13772;52.996;9.124;2023-12-20T08:49:38;23.67;;;3.55;;
25980;SDS011;13772;52.996;9.124;2023-12-20T08:52:04;12.55;;;2.30;;
25980;SDS011;13772;52.996;9.124;2023-12-20T08:54:29;14.75;;;3.30;;
25980;SDS011;13772;52.996;9.124;2023-12-20T08:56:54;14.15;;;3.00;;
25980;SDS011;13772;52.996;9.124;2023-12-20T08:59:19;17.08;;;3.17;;
25980;SDS011;13772;52.996;9.124;2023-12-20T09:01:44;20.15;;;3.97;;
25980;SDS011;13772;52.996;9.124;2023-12-20T09:04:10;14.60;;;2.67;;
25980;SDS011;13772;52.996;9.124;2023-12-20T09:06:35;14.43;;;2.53;;
25980;SDS011;13772;52.996;9.124;2023-12-20T09:09:00;16.83;;;3.38;;
25980;SDS011;13772;52.996;9.124;2023-12-20T09:11:25;15.98;;;3.10;;
25980;SDS011;13772;52.996;9.124;2023-12-20T09:13:50;11.23;;;2.45;;
25980;SDS011;13772;52.996;9.124;2023-12-20T09:16:16;17.48;;;3.13;;
25980;SDS011;13772;52.996;9.124;2023-12-20T09:18:41;16.10;;;2.78;;
25980;SDS011;13772;52.996;9.124;2023-12-20T09:21:06;17.40;;;3.15;;
25980;SDS011;13772;52.996;9.124;2023-12-20T09:23:32;15.60;;;3.08;;
25980;SDS011;13772;52.996;9.124;2023-12-20T09:25:57;14.93;;;3.38;;
25980;SDS011;13772;52.996;9.124;2023-12-20T09:28:22;13.13;;;2.97;;
25980;SDS011;13772;52.996;9.124;2023-12-20T09:30:47;18.38;;;3.10;;
25980;SDS011;13772;52.996;9.124;2023-12-20T09:33:13;12.52;;;2.95;;
25980;SDS011;13772;52.996;9.124;2023-12-20T09:35:38;12.82;;;2.75;;
25980;SDS011;13772;52.996;9.124;2023-12-20T09:38:03;13.18;;;3.03;;
25980;SDS011;13772;52.996;9.124;2023-12-20T09:40:28;15.70;;;3.40;;
25980;SDS011;13772;52.996;9.124;2023-12-20T09:42:56;18.90;;;4.35;;
25980;SDS011;13772;52.996;9.124;2023-12-20T09:45:22;13.98;;;3.25;;
25980;SDS011;13772;52.996;9.124;2023-12-20T09:47:47;15.82;;;3.28;;
25980;SDS011;13772;52.996;9.124;2023-12-20T09:50:13;19.98;;;3.38;;
25980;SDS011;13772;52.996;9.124;2023-12-20T09:52:39;14.57;;;2.50;;
25980;SDS011;13772;52.996;9.124;2023-12-20T09:55:04;16.90;;;3.47;;
25980;SDS011;13772;52.996;9.124;2023-12-20T09:57:32;11.07;;;3.20;;
25980;SDS011;13772;52.996;9.124;2023-12-20T09:59:58;13.18;;;3.10;;
25980;SDS011;13772;52.996;9.124;2023-12-20T10:02:24;11.88;;;3.00;;
25980;SDS011;13772;52.996;9.124;2023-12-20T10:04:52;13.43;;;3.03;;
25980;SDS011;13772;52.996;9.124;2023-12-20T10:07:17;9.60;;;2.78;;
25980;SDS011;13772;52.996;9.124;2023-12-20T10:09:42;13.95;;;2.85;;
25980;SDS011;13772;52.996;9.124;2023-12-20T10:12:08;14.65;;;3.20;;
25980;SDS011;13772;52.996;9.124;2023-12-20T10:14:34;10.85;;;2.13;;
25980;SDS011;13772;52.996;9.124;2023-12-20T10:17:03;6.32;;;1.50;;
25980;SDS011;13772;52.996;9.124;2023-12-20T10:19:28;5.78;;;1.30;;
25980;SDS011;13772;52.996;9.124;2023-12-20T10:21:53;6.05;;;1.65;;
25980;SDS011;13772;52.996;9.124;2023-12-20T10:24:19;4.50;;;1.02;;
25980;SDS011;13772;52.996;9.124;2023-12-20T10:26:44;6.15;;;1.00;;
25980;SDS011;13772;52.996;9.124;2023-12-20T10:29:09;4.50;;;0.82;;
25980;SDS011;13772;52.996;9.124;2023-12-20T10:31:35;3.55;;;0.80;;
25980;SDS011;13772;52.996;9.124;2023-12-20T10:34:01;2.42;;;0.68;;
25980;SDS011;13772;52.996;9.124;2023-12-20T10:36:27;4.97;;;0.65;;
25980;SDS011;13772;52.996;9.124;2023-12-20T10:38:53;1.90;;;0.60;;
25980;SDS011;13772;52.996;9.124;2023-12-20T10:41:20;1.90;;;0.50;;
25980;SDS011;13772;52.996;9.124;2023-12-20T10:43:49;3.92;;;0.68;;
25980;SDS011;13772;52.996;9.124;2023-12-20T10:46:15;2.03;;;0.77;;
25980;SDS011;13772;52.996;9.124;2023-12-20T10:48:41;2.50;;;0.75;;
25980;SDS011;13772;52.996;9.124;2023-12-20T10:51:06;2.90;;;0.70;;
25980;SDS011;13772;52.996;9.124;2023-12-20T10:53:31;4.35;;;0.88;;
25980;SDS011;13772;52.996;9.124;2023-12-20T10:55:57;4.20;;;0.60;;
25980;SDS011;13772;52.996;9.124;2023-12-20T10:58:25;1.50;;;0.85;;
25980;SDS011;13772;52.996;9.124;2023-12-20T11:00:50;3.70;;;0.60;;
25980;SDS011;13772;52.996;9.124;2023-12-20T11:03:21;3.53;;;0.77;;
25980;SDS011;13772;52.996;9.124;2023-12-20T11:06:00;4.55;;;0.98;;
25980;SDS011;13772;52.996;9.124;2023-12-20T11:08:28;3.60;;;0.80;;
25980;SDS011;13772;52.996;9.124;2023-12-20T11:11:06;2.88;;;1.02;;
25980;SDS011;13772;52.996;9.124;2023-12-20T11:13:40;4.75;;;0.70;;
25980;SDS011;13772;52.996;9.124;2023-12-20T11:16:09;3.90;;;0.85;;
25980;SDS011;13772;52.996;9.124;2023-12-20T11:18:34;5.45;;;1.60;;
25980;SDS011;13772;52.996;9.124;2023-12-20T11:21:00;2.95;;;0.50;;
25980;SDS011;13772;52.996;9.124;2023-12-20T11:23:25;4.18;;;0.70;;
25980;SDS011;13772;52.996;9.124;2023-12-20T11:25:55;4.25;;;1.00;;
25980;SDS011;13772;52.996;9.124;2023-12-20T11:28:21;4.70;;;0.70;;
25980;SDS011;13772;52.996;9.124;2023-12-20T11:30:50;6.88;;;1.00;;
25980;SDS011;13772;52.996;9.124;2023-12-20T11:33:16;6.57;;;1.08;;
25980;SDS011;13772;52.996;9.124;2023-12-20T11:35:42;5.78;;;0.80;;
25980;SDS011;13772;52.996;9.124;2023-12-20T11:38:08;5.95;;;0.90;;
25980;SDS011;13772;52.996;9.124;2023-12-20T11:40:33;5.78;;;1.10;;
25980;SDS011;13772;52.996;9.124;2023-12-20T11:42:59;7.57;;;1.20;;
25980;SDS011;13772;52.996;9.124;2023-12-20T11:45:25;7.20;;;0.88;;
25980;SDS011;13772;52.996;9.124;2023-12-20T11:47:51;4.25;;;1.30;;
25980;SDS011;13772;52.996;9.124;2023-12-20T11:50:17;12.48;;;1.77;;
25980;SDS011;13772;52.996;9.124;2023-12-20T11:52:42;3.10;;;1.00;;
25980;SDS011;13772;52.996;9.124;2023-12-20T11:55:07;7.53;;;1.58;;
25980;SDS011;13772;52.996;9.124;2023-12-20T11:57:33;13.43;;;1.35;;
25980;SDS011;13772;52.996;9.124;2023-12-20T11:59:58;12.27;;;1.65;;
25980;SDS011;13772;52.996;9.124;2023-12-20T12:02:23;5.90;;;1.33;;
25980;SDS011;13772;52.996;9.124;2023-12-20T12:04:49;7.65;;;1.20;;
25980;SDS011;13772;52.996;9.124;2023-12-20T12:07:15;11.73;;;1.52;;
25980;SDS011;13772;52.996;9.124;2023-12-20T12:09:41;8.55;;;1.17;;
25980;SDS011;13772;52.996;9.124;2023-12-20T12:12:06;8.77;;;1.08;;
25980;SDS011;13772;52.996;9.124;2023-12-20T12:14:31;10.13;;;1.83;;
25980;SDS011;13772;52.996;9.124;2023-12-20T12:16:57;9.75;;;1.48;;
25980;SDS011;13772;52.996;9.124;2023-12-20T12:19:23;10.43;;;2.20;;
25980;SDS011;13772;52.996;9.124;2023-12-20T12:21:49;11.27;;;1.25;;
25980;SDS011;13772;52.996;9.124;2023-12-20T12:24:14;14.63;;;2.28;;
25980;SDS011;13772;52.996;9.124;2023-12-20T12:26:39;9.68;;;1.60;;
25980;SDS011;13772;52.996;9.124;2023-12-20T12:29:08;8.18;;;1.58;;
25980;SDS011;13772;52.996;9.124;2023-12-20T12:31:33;10.40;;;1.70;;
25980;SDS011;13772;52.996;9.124;2023-12-20T12:33:58;9.38;;;2.67;;
25980;SDS011;13772;52.996;9.124;2023-12-20T12:36:23;9.98;;;1.58;;
25980;SDS011;13772;52.996;9.124;2023-12-20T12:38:49;13.13;;;1.73;;
25980;SDS011;13772;52.996;9.124;2023-12-20T12:41:14;14.10;;;2.00;;
25980;SDS011;13772;52.996;9.124;2023-12-20T12:43:40;11.25;;;2.75;;
25980;SDS011;13772;52.996;9.124;2023-12-20T12:46:05;12.50;;;1.35;;
25980;SDS011;13772;52.996;9.124;2023-12-20T12:48:30;10.45;;;1.95;;
25980;SDS011;13772;52.996;9.124;2023-12-20T12:50:56;13.60;;;2.08;;
25980;SDS011;13772;52.996;9.124;2023-12-20T12:53:24;14.30;;;2.10;;
25980;SDS011;13772;52.996;9.124;2023-12-20T12:55:49;11.63;;;2.08;;
25980;SDS011;13772;52.996;9.124;2023-12-20T12:58:14;14.85;;;1.70;;
25980;SDS011;13772;52.996;9.124;2023-12-20T13:00:39;10.95;;;1.63;;
